Huff, North Dakota
Current Conditions -  °F | °C
As of 3:55 AM on Thursday 29 Jan 2015 (Local Time) from KY19 Reporting Station
Overcast Overcast  
Wind Chill: 16°   Ceiling: 1300
Heat Index: 28°   Visibility: 10mi
Dew Point: 25°   Wind: 18mph
Humidity: 86%   Direction: 320°NW
Pressure: 30.32"   Gusts: 23mph
Location:  46.7289°N, 100.983°W
Report Text: KY19 290955Z AUTO 32016G20KT 10SM OVC013 M02/M04 A3032 RMK AO2
Loading
Personal Weather Stations






























Interactive Weather Map New forecast layout! Learn more

10-Day Weather Forecast

Advertisements
Track Severe Weather on mobile